Blue Ridge, New York
Current Conditions -  °F | °C
As of 1:35 PM on Monday 26 Jan 2015 (Local Time) from K6B0 Reporting Station
Scattered Clouds Scattered Clouds  
Wind Chill:   Ceiling: Unl
Heat Index: 13°   Visibility: 10mi
Dew Point: -1°   Wind: 7mph
Humidity: 54%   Direction: 340°NNW
Pressure: 30.05"   Gusts: NA
Location:  43.8504°N, 73.7678°W
Report Text: K6B0 261835Z AUTO 34006KT 10SM SCT075 SCT085 M11/M18 A3005 RMK AO2 T11071183
Loading
Personal Weather Stations






























Interactive Weather Map New forecast layout! Learn more

10-Day Weather Forecast

Advertisements
Track Severe Weather on mobile